sensor_id;sensor_type;location;lat;lon;timestamp;pressure;altitude;pressure_sealevel;temperature;humidity
34586;BME280;20816;50.950;11.108;2022-08-01T00:00:06;98307.28;;;20.38;89.12
34586;BME280;20816;50.950;11.108;2022-08-01T00:02:35;98309.00;;;20.39;88.83
34586;BME280;20816;50.950;11.108;2022-08-01T00:05:03;98308.53;;;20.33;88.99
34586;BME280;20816;50.950;11.108;2022-08-01T00:07:32;98307.28;;;20.38;89.23
34586;BME280;20816;50.950;11.108;2022-08-01T00:09:59;98296.97;;;20.47;88.51
34586;BME280;20816;50.950;11.108;2022-08-01T00:12:26;98302.44;;;20.58;89.04
34586;BME280;20816;50.950;11.108;2022-08-01T00:14:52;98299.38;;;20.64;90.23
34586;BME280;20816;50.950;11.108;2022-08-01T00:17:19;98300.53;;;20.60;90.97
34586;BME280;20816;50.950;11.108;2022-08-01T00:19:46;98302.91;;;20.64;91.97
34586;BME280;20816;50.950;11.108;2022-08-01T00:22:12;98297.00;;;20.59;95.15
34586;BME280;20816;50.950;11.108;2022-08-01T00:24:39;98296.47;;;20.67;95.78
34586;BME280;20816;50.950;11.108;2022-08-01T00:27:05;98294.47;;;20.70;97.00
34586;BME280;20816;50.950;11.108;2022-08-01T00:29:32;98285.59;;;20.70;97.73
34586;BME280;20816;50.950;11.108;2022-08-01T00:32:19;98279.59;;;20.66;99.44
34586;BME280;20816;50.950;11.108;2022-08-01T00:34:45;98281.19;;;20.56;100.00
34586;BME280;20816;50.950;11.108;2022-08-01T00:37:12;98284.25;;;20.50;100.00
34586;BME280;20816;50.950;11.108;2022-08-01T00:39:41;98285.44;;;20.46;100.00
34586;BME280;20816;50.950;11.108;2022-08-01T00:42:09;98281.72;;;20.49;100.00
34586;BME280;20816;50.950;11.108;2022-08-01T00:44:37;98282.28;;;20.39;100.00
34586;BME280;20816;50.950;11.108;2022-08-01T00:47:05;98282.91;;;20.30;100.00
34586;BME280;20816;50.950;11.108;2022-08-01T00:49:32;98270.94;;;20.23;100.00
34586;BME280;20816;50.950;11.108;2022-08-01T00:51:59;98280.84;;;20.21;100.00
34586;BME280;20816;50.950;11.108;2022-08-01T00:54:27;98272.63;;;20.24;100.00
34586;BME280;20816;50.950;11.108;2022-08-01T00:56:54;98271.56;;;20.27;100.00
34586;BME280;20816;50.950;11.108;2022-08-01T00:59:22;98270.94;;;20.23;100.00
34586;BME280;20816;50.950;11.108;2022-08-01T01:01:51;98269.00;;;20.25;100.00
34586;BME280;20816;50.950;11.108;2022-08-01T01:04:19;98269.41;;;20.19;100.00
34586;BME280;20816;50.950;11.108;2022-08-01T01:10:16;98266.81;;;20.05;100.00
34586;BME280;20816;50.950;11.108;2022-08-01T01:12:51;98263.44;;;19.88;100.00
34586;BME280;20816;50.950;11.108;2022-08-01T01:15:30;98261.31;;;19.94;100.00
34586;BME280;20816;50.950;11.108;2022-08-01T01:18:09;98264.22;;;20.03;100.00
34586;BME280;20816;50.950;11.108;2022-08-01T01:20:41;98262.09;;;19.96;100.00
34586;BME280;20816;50.950;11.108;2022-08-01T01:23:34;98263.78;;;19.97;100.00
34586;BME280;20816;50.950;11.108;2022-08-01T01:29:06;98258.81;;;20.05;100.00
34586;BME280;20816;50.950;11.108;2022-08-01T01:31:48;98271.28;;;20.04;100.00
34586;BME280;20816;50.950;11.108;2022-08-01T01:34:18;98269.47;;;20.05;100.00
34586;BME280;20816;50.950;11.108;2022-08-01T01:36:47;98263.47;;;20.01;100.00
34586;BME280;20816;50.950;11.108;2022-08-01T01:39:15;98266.25;;;20.00;100.00
34586;BME280;20816;50.950;11.108;2022-08-01T01:41:44;98268.06;;;19.99;100.00
34586;BME280;20816;50.950;11.108;2022-08-01T01:44:11;98267.41;;;19.96;100.00
34586;BME280;20816;50.950;11.108;2022-08-01T01:46:39;98270.56;;;19.88;100.00
34586;BME280;20816;50.950;11.108;2022-08-01T01:49:08;98275.25;;;19.84;100.00
34586;BME280;20816;50.950;11.108;2022-08-01T01:51:38;98275.84;;;19.75;100.00
34586;BME280;20816;50.950;11.108;2022-08-01T01:54:07;98268.41;;;19.80;100.00
34586;BME280;20816;50.950;11.108;2022-08-01T01:56:35;98260.78;;;19.74;100.00
34586;BME280;20816;50.950;11.108;2022-08-01T01:59:18;98263.59;;;19.85;100.00
34586;BME280;20816;50.950;11.108;2022-08-01T02:01:53;98255.44;;;19.88;100.00
34586;BME280;20816;50.950;11.108;2022-08-01T02:04:41;98263.66;;;19.71;100.00
34586;BME280;20816;50.950;11.108;2022-08-01T02:07:14;98252.41;;;19.80;100.00
34586;BME280;20816;50.950;11.108;2022-08-01T02:09:43;98256.03;;;19.79;100.00
34586;BME280;20816;50.950;11.108;2022-08-01T02:12:12;98259.44;;;19.81;100.00
34586;BME280;20816;50.950;11.108;2022-08-01T02:14:42;98252.41;;;19.80;100.00
34586;BME280;20816;50.950;11.108;2022-08-01T02:17:12;98258.78;;;19.78;100.00
34586;BME280;20816;50.950;11.108;2022-08-01T02:19:42;98258.88;;;19.76;100.00
34586;BME280;20816;50.950;11.108;2022-08-01T02:22:19;98264.97;;;19.78;100.00
34586;BME280;20816;50.950;11.108;2022-08-01T02:27:37;98259.97;;;19.86;100.00
34586;BME280;20816;50.950;11.108;2022-08-01T02:30:08;98260.78;;;19.74;100.00
34586;BME280;20816;50.950;11.108;2022-08-01T02:35:12;98261.19;;;19.68;100.00
34586;BME280;20816;50.950;11.108;2022-08-01T02:37:41;98269.53;;;19.76;100.00
34586;BME280;20816;50.950;11.108;2022-08-01T02:40:13;98264.31;;;19.75;100.00
34586;BME280;20816;50.950;11.108;2022-08-01T02:42:43;98273.91;;;19.77;100.00
34586;BME280;20816;50.950;11.108;2022-08-01T02:45:13;98276.09;;;19.85;100.00
34586;BME280;20816;50.950;11.108;2022-08-01T02:47:42;98274.13;;;19.74;100.00
34586;BME280;20816;50.950;11.108;2022-08-01T02:50:12;98271.06;;;19.80;100.00
34586;BME280;20816;50.950;11.108;2022-08-01T02:52:41;98267.97;;;19.86;100.00
34586;BME280;20816;50.950;11.108;2022-08-01T02:55:09;98281.91;;;19.77;100.00
34586;BME280;20816;50.950;11.108;2022-08-01T02:57:37;98274.38;;;19.84;100.00
34586;BME280;20816;50.950;11.108;2022-08-01T03:00:23;98266.28;;;19.85;100.00
34586;BME280;20816;50.950;11.108;2022-08-01T03:02:51;98269.38;;;19.79;100.00
34586;BME280;20816;50.950;11.108;2022-08-01T03:05:22;98271.94;;;19.67;100.00
34586;BME280;20816;50.950;11.108;2022-08-01T03:07:51;98264.69;;;19.69;100.00
34586;BME280;20816;50.950;11.108;2022-08-01T03:10:19;98266.03;;;19.62;100.00
34586;BME280;20816;50.950;11.108;2022-08-01T03:12:46;98269.94;;;19.56;100.00
34586;BME280;20816;50.950;11.108;2022-08-01T03:15:16;98270.13;;;19.53;100.00
34586;BME280;20816;50.950;11.108;2022-08-01T03:17:45;98268.41;;;19.52;100.00
34586;BME280;20816;50.950;11.108;2022-08-01T03:20:14;98269.16;;;19.54;100.00
34586;BME280;20816;50.950;11.108;2022-08-01T03:22:44;98279.19;;;19.50;100.00
34586;BME280;20816;50.950;11.108;2022-08-01T03:25:13;98273.38;;;19.44;100.00
34586;BME280;20816;50.950;11.108;2022-08-01T03:27:50;98287.81;;;19.54;100.00
34586;BME280;20816;50.950;11.108;2022-08-01T03:30:18;98291.44;;;19.53;100.00
34586;BME280;20816;50.950;11.108;2022-08-01T03:32:44;98278.53;;;19.61;100.00
34586;BME280;20816;50.950;11.108;2022-08-01T03:35:12;98285.88;;;19.57;100.00
34586;BME280;20816;50.950;11.108;2022-08-01T03:37:45;98290.81;;;19.64;100.00
34586;BME280;20816;50.950;11.108;2022-08-01T03:40:38;98289.38;;;19.58;100.00
34586;BME280;20816;50.950;11.108;2022-08-01T03:43:10;98287.09;;;19.66;100.00
34586;BME280;20816;50.950;11.108;2022-08-01T03:45:41;98294.13;;;19.67;100.00
34586;BME280;20816;50.950;11.108;2022-08-01T03:48:16;98289.53;;;19.83;100.00
34586;BME280;20816;50.950;11.108;2022-08-01T03:50:48;98276.78;;;19.74;100.00
34586;BME280;20816;50.950;11.108;2022-08-01T03:53:20;98277.50;;;19.64;100.00
34586;BME280;20816;50.950;11.108;2022-08-01T03:55:49;98279.84;;;19.68;100.00
34586;BME280;20816;50.950;11.108;2022-08-01T03:58:17;98276.31;;;19.68;100.00
34586;BME280;20816;50.950;11.108;2022-08-01T04:00:44;98286.50;;;19.75;100.00
34586;BME280;20816;50.950;11.108;2022-08-01T04:03:12;98276.31;;;19.68;100.00
34586;BME280;20816;50.950;11.108;2022-08-01T04:05:42;98284.78;;;19.74;100.00
34586;BME280;20816;50.950;11.108;2022-08-01T04:08:09;98291.25;;;19.70;100.00
34586;BME280;20816;50.950;11.108;2022-08-01T04:10:37;98290.97;;;19.75;100.00
34586;BME280;20816;50.950;11.108;2022-08-01T04:13:04;98293.19;;;19.68;100.00
34586;BME280;20816;50.950;11.108;2022-08-01T04:15:31;98298.41;;;19.70;100.00
34586;BME280;20816;50.950;11.108;2022-08-01T04:17:58;98293.38;;;19.65;100.00
34586;BME280;20816;50.950;11.108;2022-08-01T04:20:25;98293.94;;;19.70;100.00
34586;BME280;20816;50.950;11.108;2022-08-01T04:22:51;98310.72;;;19.72;100.00
34586;BME280;20816;50.950;11.108;2022-08-01T04:25:26;98300.03;;;19.72;100.00
34586;BME280;20816;50.950;11.108;2022-08-01T04:27:55;98302.88;;;19.69;100.00
34586;BME280;20816;50.950;11.108;2022-08-01T04:30:27;98303.63;;;19.85;100.00
34586;BME280;20816;50.950;11.108;2022-08-01T04:32:59;98302.84;;;19.98;100.00
34586;BME280;20816;50.950;11.108;2022-08-01T04:35:27;98302.63;;;20.01;100.00
34586;BME280;20816;50.950;11.108;2022-08-01T04:38:17;98307.97;;;20.01;100.00
34586;BME280;20816;50.950;11.108;2022-08-01T04:40:50;98319.03;;;19.95;100.00
34586;BME280;20816;50.950;11.108;2022-08-01T04:43:18;98324.38;;;19.95;100.00
34586;BME280;20816;50.950;11.108;2022-08-01T04:45:46;98326.84;;;19.98;100.00
34586;BME280;20816;50.950;11.108;2022-08-01T04:48:16;98328.94;;;20.07;100.00
34586;BME280;20816;50.950;11.108;2022-08-01T04:50:44;98325.09;;;20.11;100.00
34586;BME280;20816;50.950;11.108;2022-08-01T04:53:15;98331.38;;;20.10;100.00
34586;BME280;20816;50.950;11.108;2022-08-01T04:55:44;98325.31;;;20.08;100.00
34586;BME280;20816;50.950;11.108;2022-08-01T04:58:15;98328.31;;;20.16;100.00
34586;BME280;20816;50.950;11.108;2022-08-01T05:00:44;98331.97;;;20.15;100.00
34586;BME280;20816;50.950;11.108;2022-08-01T05:03:11;98333.66;;;20.16;100.00
34586;BME280;20816;50.950;11.108;2022-08-01T05:05:38;98327.88;;;20.36;100.00
34586;BME280;20816;50.950;11.108;2022-08-01T05:08:05;98334.59;;;20.29;100.00
34586;BME280;20816;50.950;11.108;2022-08-01T05:10:33;98330.56;;;20.36;100.00
34586;BME280;20816;50.950;11.108;2022-08-01T05:13:00;98330.00;;;20.58;100.00
34586;BME280;20816;50.950;11.108;2022-08-01T05:15:26;98333.06;;;20.79;100.00
34586;BME280;20816;50.950;11.108;2022-08-01T05:17:54;98333.06;;;20.79;100.00
34586;BME280;20816;50.950;11.108;2022-08-01T05:20:20;98327.72;;;20.79;100.00
34586;BME280;20816;50.950;11.108;2022-08-01T05:22:47;98334.03;;;20.78;100.00
34586;BME280;20816;50.950;11.108;2022-08-01T05:25:14;98339.25;;;20.80;100.00
34586;BME280;20816;50.950;11.108;2022-08-01T05:28:00;98339.47;;;20.89;100.00
34586;BME280;20816;50.950;11.108;2022-08-01T05:30:28;98326.03;;;21.04;100.00
34586;BME280;20816;50.950;11.108;2022-08-01T05:32:55;98334.81;;;21.06;100.00
34586;BME280;20816;50.950;11.108;2022-08-01T05:35:22;98337.06;;;21.12;100.00
34586;BME280;20816;50.950;11.108;2022-08-01T05:38:09;98333.53;;;21.24;100.00
34586;BME280;20816;50.950;11.108;2022-08-01T05:40:40;98340.41;;;21.28;100.00
34586;BME280;20816;50.950;11.108;2022-08-01T05:43:06;98336.66;;;21.18;100.00
34586;BME280;20816;50.950;11.108;2022-08-01T05:45:33;98336.78;;;21.29;100.00
34586;BME280;20816;50.950;11.108;2022-08-01T05:48:00;98337.69;;;21.03;100.00
34586;BME280;20816;50.950;11.108;2022-08-01T05:50:26;98348.72;;;21.23;100.00
34586;BME280;20816;50.950;11.108;2022-08-01T05:52:53;98351.72;;;21.19;100.00
34586;BME280;20816;50.950;11.108;2022-08-01T05:55:20;98347.63;;;21.00;100.00
34586;BME280;20816;50.950;11.108;2022-08-01T05:57:47;98347.84;;;20.97;100.00
34586;BME280;20816;50.950;11.108;2022-08-01T06:00:14;98352.75;;;21.16;100.00
34586;BME280;20816;50.950;11.108;2022-08-01T06:02:42;98352.72;;;20.91;100.00
34586;BME280;20816;50.950;11.108;2022-08-01T06:05:10;98349.72;;;20.83;100.00
34586;BME280;20816;50.950;11.108;2022-08-01T06:07:38;98343.97;;;20.89;100.00
34586;BME280;20816;50.950;11.108;2022-08-01T06:10:06;98343.41;;;20.71;100.00
34586;BME280;20816;50.950;11.108;2022-08-01T06:12:34;98355.41;;;20.78;100.00
34586;BME280;20816;50.950;11.108;2022-08-01T06:15:02;98349.28;;;20.76;100.00
34586;BME280;20816;50.950;11.108;2022-08-01T06:17:29;98355.28;;;20.80;100.00
34586;BME280;20816;50.950;11.108;2022-08-01T06:19:55;98359.16;;;20.88;100.00
34586;BME280;20816;50.950;11.108;2022-08-01T06:22:22;98360.63;;;20.92;100.00
34586;BME280;20816;50.950;11.108;2022-08-01T06:24:49;98361.38;;;20.82;100.00
34586;BME280;20816;50.950;11.108;2022-08-01T06:27:16;98361.88;;;20.74;100.00
34586;BME280;20816;50.950;11.108;2022-08-01T06:29:47;98362.91;;;20.59;100.00
34586;BME280;20816;50.950;11.108;2022-08-01T06:32:19;98362.72;;;20.62;100.00
34586;BME280;20816;50.950;11.108;2022-08-01T06:34:52;98359.94;;;20.63;100.00
34586;BME280;20816;50.950;11.108;2022-08-01T06:37:19;98365.91;;;20.67;100.00
34586;BME280;20816;50.950;11.108;2022-08-01T06:39:45;98370.13;;;20.71;100.00
34586;BME280;20816;50.950;11.108;2022-08-01T06:42:12;98365.91;;;20.67;100.00
34586;BME280;20816;50.950;11.108;2022-08-01T06:44:41;98382.78;;;20.40;100.00
34586;BME280;20816;50.950;11.108;2022-08-01T06:47:07;98392.22;;;19.91;100.00
34586;BME280;20816;50.950;11.108;2022-08-01T06:49:34;98395.47;;;19.67;100.00
34586;BME280;20816;50.950;11.108;2022-08-01T06:52:01;98402.22;;;19.58;100.00
34586;BME280;20816;50.950;11.108;2022-08-01T06:54:29;98406.25;;;19.36;100.00
34586;BME280;20816;50.950;11.108;2022-08-01T06:56:56;98395.72;;;19.04;100.00
34586;BME280;20816;50.950;11.108;2022-08-01T06:59:23;98399.13;;;18.92;100.00
34586;BME280;20816;50.950;11.108;2022-08-01T07:01:49;98400.38;;;19.00;100.00
34586;BME280;20816;50.950;11.108;2022-08-01T07:04:16;98408.31;;;18.86;100.00
34586;BME280;20816;50.950;11.108;2022-08-01T07:06:42;98403.31;;;18.96;100.00
34586;BME280;20816;50.950;11.108;2022-08-01T07:09:09;98405.34;;;19.07;100.00
34586;BME280;20816;50.950;11.108;2022-08-01T07:11:40;98411.00;;;19.16;100.00
34586;BME280;20816;50.950;11.108;2022-08-01T07:14:06;98401.28;;;19.29;100.00
34586;BME280;20816;50.950;11.108;2022-08-01T07:16:33;98404.47;;;19.50;100.00
34586;BME280;20816;50.950;11.108;2022-08-01T07:19:00;98407.75;;;19.84;100.00
34586;BME280;20816;50.950;11.108;2022-08-01T07:21:27;98406.69;;;20.15;100.00
34586;BME280;20816;50.950;11.108;2022-08-01T07:24:10;98391.84;;;20.79;100.00
34586;BME280;20816;50.950;11.108;2022-08-01T07:26:46;98400.47;;;21.10;100.00
34586;BME280;20816;50.950;11.108;2022-08-01T07:29:23;98404.47;;;21.30;100.00
34586;BME280;20816;50.950;11.108;2022-08-01T07:31:52;98405.34;;;21.43;100.00
34586;BME280;20816;50.950;11.108;2022-08-01T07:34:19;98400.28;;;21.89;100.00
34586;BME280;20816;50.950;11.108;2022-08-01T07:36:46;98399.25;;;21.53;100.00
34586;BME280;20816;50.950;11.108;2022-08-01T07:39:12;98408.56;;;21.61;100.00
34586;BME280;20816;50.950;11.108;2022-08-01T07:41:39;98409.31;;;21.63;100.00
34586;BME280;20816;50.950;11.108;2022-08-01T07:44:26;98408.22;;;21.78;100.00
34586;BME280;20816;50.950;11.108;2022-08-01T07:46:54;98402.00;;;21.90;100.00
34586;BME280;20816;50.950;11.108;2022-08-01T07:49:21;98407.47;;;21.89;100.00
34586;BME280;20816;50.950;11.108;2022-08-01T07:51:48;98405.22;;;21.95;100.00
34586;BME280;20816;50.950;11.108;2022-08-01T07:54:32;98407.56;;;22.00;100.00
34586;BME280;20816;50.950;11.108;2022-08-01T07:57:01;98414.94;;;22.22;100.00
34586;BME280;20816;50.950;11.108;2022-08-01T07:59:27;98417.84;;;22.19;100.00
34586;BME280;20816;50.950;11.108;2022-08-01T08:01:54;98412.19;;;22.10;100.00
34586;BME280;20816;50.950;11.108;2022-08-01T08:04:21;98406.94;;;21.83;100.00
34586;BME280;20816;50.950;11.108;2022-08-01T08:06:47;98414.13;;;21.70;100.00
34586;BME280;20816;50.950;11.108;2022-08-01T08:09:15;98420.53;;;21.93;100.00
34586;BME280;20816;50.950;11.108;2022-08-01T08:11:43;98414.41;;;22.04;100.00
34586;BME280;20816;50.950;11.108;2022-08-01T08:14:14;98407.38;;;22.39;100.00
34586;BME280;20816;50.950;11.108;2022-08-01T08:16:42;98411.03;;;22.62;100.00
34586;BME280;20816;50.950;11.108;2022-08-01T08:19:09;98409.88;;;22.30;100.00
34586;BME280;20816;50.950;11.108;2022-08-01T08:21:36;98405.97;;;22.47;100.00
34586;BME280;20816;50.950;11.108;2022-08-01T08:24:04;98416.91;;;22.44;100.00
34586;BME280;20816;50.950;11.108;2022-08-01T08:26:57;98415.78;;;22.59;100.00
34586;BME280;20816;50.950;11.108;2022-08-01T08:29:24;98407.47;;;22.75;100.00
34586;BME280;20816;50.950;11.108;2022-08-01T08:31:53;98420.41;;;23.05;99.54
34586;BME280;20816;50.950;11.108;2022-08-01T08:34:22;98416.09;;;23.61;95.91
34586;BME280;20816;50.950;11.108;2022-08-01T08:36:49;98419.31;;;23.89;97.44
34586;BME280;20816;50.950;11.108;2022-08-01T08:39:17;98421.09;;;23.66;94.38
34586;BME280;20816;50.950;11.108;2022-08-01T08:41:46;98422.63;;;23.11;95.19
34586;BME280;20816;50.950;11.108;2022-08-01T08:44:16;98418.06;;;22.89;97.32
34586;BME280;20816;50.950;11.108;2022-08-01T08:46:45;98429.19;;;22.83;96.37
34586;BME280;20816;50.950;11.108;2022-08-01T08:49:22;98422.41;;;22.66;94.89
34586;BME280;20816;50.950;11.108;2022-08-01T08:51:51;98437.25;;;22.46;97.00
34586;BME280;20816;50.950;11.108;2022-08-01T08:54:22;98437.19;;;22.22;94.46
34586;BME280;20816;50.950;11.108;2022-08-01T08:56:57;98433.81;;;22.07;96.63
34586;BME280;20816;50.950;11.108;2022-08-01T08:59:24;98433.91;;;22.19;97.59
34586;BME280;20816;50.950;11.108;2022-08-01T09:01:52;98440.41;;;22.27;98.84
34586;BME280;20816;50.950;11.108;2022-08-01T09:04:20;98442.47;;;22.24;97.72
34586;BME280;20816;50.950;11.108;2022-08-01T09:06:52;98443.50;;;22.34;96.73
34586;BME280;20816;50.950;11.108;2022-08-01T09:09:19;98456.97;;;22.45;96.64
34586;BME280;20816;50.950;11.108;2022-08-01T09:11:46;98454.00;;;22.37;95.65
34586;BME280;20816;50.950;11.108;2022-08-01T09:14:24;98463.91;;;22.24;96.08
34586;BME280;20816;50.950;11.108;2022-08-01T09:17:18;98457.25;;;22.17;94.23
34586;BME280;20816;50.950;11.108;2022-08-01T09:19:49;98455.28;;;22.31;95.83
34586;BME280;20816;50.950;11.108;2022-08-01T09:22:22;98452.97;;;22.14;95.91
34586;BME280;20816;50.950;11.108;2022-08-01T09:27:28;98452.06;;;22.39;92.54
34586;BME280;20816;50.950;11.108;2022-08-01T09:30:07;98456.75;;;22.48;92.58
34586;BME280;20816;50.950;11.108;2022-08-01T09:32:51;98450.94;;;22.54;92.40
34586;BME280;20816;50.950;11.108;2022-08-01T09:35:37;98444.91;;;23.00;90.20
34586;BME280;20816;50.950;11.108;2022-08-01T09:38:17;98455.75;;;23.34;88.84
34586;BME280;20816;50.950;11.108;2022-08-01T09:43:20;98464.06;;;23.77;84.25
34586;BME280;20816;50.950;11.108;2022-08-01T09:45:48;98461.13;;;23.34;86.02
34586;BME280;20816;50.950;11.108;2022-08-01T09:48:19;98456.69;;;23.57;86.83
34586;BME280;20816;50.950;11.108;2022-08-01T09:50:52;98464.53;;;23.36;86.31
34586;BME280;20816;50.950;11.108;2022-08-01T09:53:20;98455.81;;;23.56;86.02
34586;BME280;20816;50.950;11.108;2022-08-01T09:56:08;98455.19;;;23.88;84.61
34586;BME280;20816;50.950;11.108;2022-08-01T09:58:51;98455.44;;;24.29;84.66
34586;BME280;20816;50.950;11.108;2022-08-01T10:01:25;98449.09;;;24.42;82.13
34586;BME280;20816;50.950;11.108;2022-08-01T10:04:12;98450.63;;;24.67;82.01
34586;BME280;20816;50.950;11.108;2022-08-01T10:06:43;98448.06;;;24.76;80.53
34586;BME280;20816;50.950;11.108;2022-08-01T10:09:12;98454.59;;;24.95;80.22
34586;BME280;20816;50.950;11.108;2022-08-01T10:11:41;98451.66;;;24.98;78.49
34586;BME280;20816;50.950;11.108;2022-08-01T10:14:10;98445.56;;;25.28;78.33
34586;BME280;20816;50.950;11.108;2022-08-01T10:16:43;98440.94;;;25.71;76.55
34586;BME280;20816;50.950;11.108;2022-08-01T10:19:11;98438.84;;;26.06;74.62
34586;BME280;20816;50.950;11.108;2022-08-01T10:21:41;98437.78;;;26.18;73.83
34586;BME280;20816;50.950;11.108;2022-08-01T10:24:27;98445.75;;;26.29;75.59
34586;BME280;20816;50.950;11.108;2022-08-01T10:27:02;98441.66;;;25.74;75.47
34586;BME280;20816;50.950;11.108;2022-08-01T10:29:56;98447.03;;;24.88;78.38
34586;BME280;20816;50.950;11.108;2022-08-01T10:32:50;98447.88;;;24.12;79.91
34586;BME280;20816;50.950;11.108;2022-08-01T10:35:21;98447.88;;;24.12;80.64
34586;BME280;20816;50.950;11.108;2022-08-01T10:38:07;98443.91;;;24.72;79.29
34586;BME280;20816;50.950;11.108;2022-08-01T10:40:39;98438.44;;;25.06;76.70
34586;BME280;20816;50.950;11.108;2022-08-01T10:43:07;98444.56;;;24.97;73.45
34586;BME280;20816;50.950;11.108;2022-08-01T10:45:35;98443.72;;;24.53;74.55
34586;BME280;20816;50.950;11.108;2022-08-01T10:48:07;98443.72;;;24.42;75.92
34586;BME280;20816;50.950;11.108;2022-08-01T10:50:42;98445.41;;;24.97;75.07
34586;BME280;20816;50.950;11.108;2022-08-01T10:58:34;98450.72;;;25.93;71.32
34586;BME280;20816;50.950;11.108;2022-08-01T11:01:25;98448.78;;;25.63;72.78
34586;BME280;20816;50.950;11.108;2022-08-01T11:11:59;98445.53;;;25.07;73.78
34586;BME280;20816;50.950;11.108;2022-08-01T11:14:32;98439.66;;;25.96;72.48
34586;BME280;20816;50.950;11.108;2022-08-01T11:20:12;98440.84;;;26.04;69.10
34586;BME280;20816;50.950;11.108;2022-08-01T11:28:35;98439.94;;;26.24;70.30
34586;BME280;20816;50.950;11.108;2022-08-01T11:38:41;98431.34;;;25.79;72.10
34586;BME280;20816;50.950;11.108;2022-08-01T11:44:06;98426.81;;;27.48;66.30
34586;BME280;20816;50.950;11.108;2022-08-01T11:52:09;98431.19;;;26.72;67.88
34586;BME280;20816;50.950;11.108;2022-08-01T11:54:45;98429.50;;;26.80;67.61
34586;BME280;20816;50.950;11.108;2022-08-01T11:57:26;98430.50;;;26.89;67.69
34586;BME280;20816;50.950;11.108;2022-08-01T12:00:02;98430.91;;;26.94;66.82
34586;BME280;20816;50.950;11.108;2022-08-01T12:02:34;98425.97;;;27.19;64.70
34586;BME280;20816;50.950;11.108;2022-08-01T12:07:35;98422.41;;;27.67;65.51
34586;BME280;20816;50.950;11.108;2022-08-01T12:12:35;98436.00;;;27.94;64.80
34586;BME280;20816;50.950;11.108;2022-08-01T12:15:04;98432.22;;;28.14;63.21
34586;BME280;20816;50.950;11.108;2022-08-01T12:17:42;98433.28;;;27.94;63.75
34586;BME280;20816;50.950;11.108;2022-08-01T12:20:23;98437.00;;;27.83;64.28
34586;BME280;20816;50.950;11.108;2022-08-01T12:22:54;98434.38;;;27.16;66.61
34586;BME280;20816;50.950;11.108;2022-08-01T12:25:21;98427.75;;;26.70;66.92
34586;BME280;20816;50.950;11.108;2022-08-01T12:27:48;98430.19;;;26.73;67.82
34586;BME280;20816;50.950;11.108;2022-08-01T12:30:21;98432.78;;;27.03;66.98
34586;BME280;20816;50.950;11.108;2022-08-01T12:32:53;98424.22;;;28.50;64.69
34586;BME280;20816;50.950;11.108;2022-08-01T12:35:22;98420.41;;;29.34;60.95
34586;BME280;20816;50.950;11.108;2022-08-01T12:37:58;98420.66;;;29.92;59.28
34586;BME280;20816;50.950;11.108;2022-08-01T12:40:32;98414.88;;;29.87;58.90
34586;BME280;20816;50.950;11.108;2022-08-01T12:43:01;98421.03;;;28.82;60.62
34586;BME280;20816;50.950;11.108;2022-08-01T12:45:33;98422.03;;;27.99;62.50
34586;BME280;20816;50.950;11.108;2022-08-01T12:48:01;98421.81;;;27.44;64.37
34586;BME280;20816;50.950;11.108;2022-08-01T12:50:29;98425.97;;;27.19;64.86
34586;BME280;20816;50.950;11.108;2022-08-01T12:52:58;98421.56;;;26.39;66.10
34586;BME280;20816;50.950;11.108;2022-08-01T12:55:26;98424.78;;;26.82;65.16
34586;BME280;20816;50.950;11.108;2022-08-01T13:00:31;98413.22;;;28.61;62.46
34586;BME280;20816;50.950;11.108;2022-08-01T13:05:56;98403.50;;;29.57;59.11
34586;BME280;20816;50.950;11.108;2022-08-01T13:08:31;98411.88;;;29.72;58.32
34586;BME280;20816;50.950;11.108;2022-08-01T13:11:06;98396.97;;;29.68;57.12
34586;BME280;20816;50.950;11.108;2022-08-01T13:13:44;98399.81;;;29.41;57.84
34586;BME280;20816;50.950;11.108;2022-08-01T13:16:14;98395.34;;;29.75;58.61
34586;BME280;20816;50.950;11.108;2022-08-01T13:18:59;98392.06;;;29.72;57.75
34586;BME280;20816;50.950;11.108;2022-08-01T13:21:30;98388.31;;;29.65;56.38
34586;BME280;20816;50.950;11.108;2022-08-01T13:24:23;98390.47;;;30.13;55.02
34586;BME280;20816;50.950;11.108;2022-08-01T13:26:59;98392.19;;;29.62;56.63
34586;BME280;20816;50.950;11.108;2022-08-01T13:29:37;98392.00;;;29.81;56.08
34586;BME280;20816;50.950;11.108;2022-08-01T13:32:18;98398.41;;;30.06;55.55
34586;BME280;20816;50.950;11.108;2022-08-01T13:35:02;98400.25;;;29.54;56.41
34586;BME280;20816;50.950;11.108;2022-08-01T13:37:29;98398.22;;;28.94;57.89
34586;BME280;20816;50.950;11.108;2022-08-01T13:39:57;98396.50;;;28.48;57.89
34586;BME280;20816;50.950;11.108;2022-08-01T13:42:24;98405.09;;;28.34;58.73
34586;BME280;20816;50.950;11.108;2022-08-01T13:44:50;98388.75;;;28.35;58.16
34586;BME280;20816;50.950;11.108;2022-08-01T13:47:17;98402.16;;;27.90;59.17
34586;BME280;20816;50.950;11.108;2022-08-01T13:49:51;98391.34;;;27.90;58.46
34586;BME280;20816;50.950;11.108;2022-08-01T13:52:18;98386.50;;;28.31;57.43
34586;BME280;20816;50.950;11.108;2022-08-01T13:54:45;98382.31;;;28.82;57.75
34586;BME280;20816;50.950;11.108;2022-08-01T13:57:11;98387.69;;;28.46;56.26
34586;BME280;20816;50.950;11.108;2022-08-01T13:59:38;98380.00;;;27.77;57.09
34586;BME280;20816;50.950;11.108;2022-08-01T14:02:05;98384.34;;;27.97;56.81
34586;BME280;20816;50.950;11.108;2022-08-01T14:04:32;98386.41;;;27.66;58.44
34586;BME280;20816;50.950;11.108;2022-08-01T14:06:58;98397.66;;;27.61;59.35